sensor_id;sensor_type;location;lat;lon;timestamp;temperature;humidity
27633;DHT22;15046;50.930;13.334;2023-07-08T00:00:23;20.10;63.30
27633;DHT22;15046;50.930;13.334;2023-07-08T00:02:49;20.10;63.40
27633;DHT22;15046;50.930;13.334;2023-07-08T00:05:18;20.00;63.40
27633;DHT22;15046;50.930;13.334;2023-07-08T00:07:45;20.00;63.50
27633;DHT22;15046;50.930;13.334;2023-07-08T00:10:14;19.90;63.40
27633;DHT22;15046;50.930;13.334;2023-07-08T00:12:41;19.80;63.40
27633;DHT22;15046;50.930;13.334;2023-07-08T00:15:07;19.80;63.60
27633;DHT22;15046;50.930;13.334;2023-07-08T00:17:33;19.70;63.60
27633;DHT22;15046;50.930;13.334;2023-07-08T00:19:58;19.60;63.70
27633;DHT22;15046;50.930;13.334;2023-07-08T00:22:24;19.60;64.00
27633;DHT22;15046;50.930;13.334;2023-07-08T00:24:51;19.50;64.20
27633;DHT22;15046;50.930;13.334;2023-07-08T00:27:17;19.40;64.20
27633;DHT22;15046;50.930;13.334;2023-07-08T00:29:43;19.40;64.30
27633;DHT22;15046;50.930;13.334;2023-07-08T00:32:15;19.30;64.50
27633;DHT22;15046;50.930;13.334;2023-07-08T00:34:41;19.30;64.60
27633;DHT22;15046;50.930;13.334;2023-07-08T00:37:13;19.20;64.60
27633;DHT22;15046;50.930;13.334;2023-07-08T00:39:40;19.20;64.80
27633;DHT22;15046;50.930;13.334;2023-07-08T00:42:18;19.10;64.40
27633;DHT22;15046;50.930;13.334;2023-07-08T00:44:45;19.10;63.50
27633;DHT22;15046;50.930;13.334;2023-07-08T00:47:15;19.10;63.30
27633;DHT22;15046;50.930;13.334;2023-07-08T00:49:57;19.10;63.00
27633;DHT22;15046;50.930;13.334;2023-07-08T00:52:31;19.10;62.60
27633;DHT22;15046;50.930;13.334;2023-07-08T00:54:59;18.90;62.60
27633;DHT22;15046;50.930;13.334;2023-07-08T00:57:32;18.90;62.80
27633;DHT22;15046;50.930;13.334;2023-07-08T01:00:10;18.90;62.90
27633;DHT22;15046;50.930;13.334;2023-07-08T01:02:48;18.90;62.80
27633;DHT22;15046;50.930;13.334;2023-07-08T01:05:21;18.90;62.80
27633;DHT22;15046;50.930;13.334;2023-07-08T01:07:53;18.80;63.00
27633;DHT22;15046;50.930;13.334;2023-07-08T01:10:48;18.80;63.10
27633;DHT22;15046;50.930;13.334;2023-07-08T01:13:12;18.80;63.10
27633;DHT22;15046;50.930;13.334;2023-07-08T01:15:41;18.70;63.00
27633;DHT22;15046;50.930;13.334;2023-07-08T01:18:10;18.70;63.00
27633;DHT22;15046;50.930;13.334;2023-07-08T01:20:37;18.70;63.00
27633;DHT22;15046;50.930;13.334;2023-07-08T01:23:04;18.60;63.00
27633;DHT22;15046;50.930;13.334;2023-07-08T01:25:31;18.60;63.00
27633;DHT22;15046;50.930;13.334;2023-07-08T01:27:57;18.50;63.20
27633;DHT22;15046;50.930;13.334;2023-07-08T01:30:25;18.50;63.40
27633;DHT22;15046;50.930;13.334;2023-07-08T01:33:01;18.50;63.60
27633;DHT22;15046;50.930;13.334;2023-07-08T01:35:28;18.40;64.20
27633;DHT22;15046;50.930;13.334;2023-07-08T01:37:59;18.40;64.50
27633;DHT22;15046;50.930;13.334;2023-07-08T01:40:31;18.40;64.40
27633;DHT22;15046;50.930;13.334;2023-07-08T01:42:58;18.40;64.30
27633;DHT22;15046;50.930;13.334;2023-07-08T01:45:27;18.40;64.90
27633;DHT22;15046;50.930;13.334;2023-07-08T01:48:02;18.40;63.90
27633;DHT22;15046;50.930;13.334;2023-07-08T01:50:29;18.40;64.00
27633;DHT22;15046;50.930;13.334;2023-07-08T01:53:01;18.40;64.20
27633;DHT22;15046;50.930;13.334;2023-07-08T01:55:28;18.40;64.10
27633;DHT22;15046;50.930;13.334;2023-07-08T01:57:54;18.30;63.80
27633;DHT22;15046;50.930;13.334;2023-07-08T02:00:21;18.30;63.50
27633;DHT22;15046;50.930;13.334;2023-07-08T02:02:48;18.30;63.30
27633;DHT22;15046;50.930;13.334;2023-07-08T02:05:14;18.40;63.00
27633;DHT22;15046;50.930;13.334;2023-07-08T02:07:40;18.40;62.80
27633;DHT22;15046;50.930;13.334;2023-07-08T02:10:06;18.40;62.50
27633;DHT22;15046;50.930;13.334;2023-07-08T02:12:32;18.50;62.30
27633;DHT22;15046;50.930;13.334;2023-07-08T02:15:00;18.40;62.10
27633;DHT22;15046;50.930;13.334;2023-07-08T02:17:27;18.40;62.20
27633;DHT22;15046;50.930;13.334;2023-07-08T02:19:56;18.40;62.10
27633;DHT22;15046;50.930;13.334;2023-07-08T02:22:22;18.50;61.80
27633;DHT22;15046;50.930;13.334;2023-07-08T02:24:48;18.50;61.70
27633;DHT22;15046;50.930;13.334;2023-07-08T02:27:14;18.50;61.60
27633;DHT22;15046;50.930;13.334;2023-07-08T02:29:40;18.40;61.60
27633;DHT22;15046;50.930;13.334;2023-07-08T02:32:08;18.40;61.60
27633;DHT22;15046;50.930;13.334;2023-07-08T02:34:35;18.40;61.60
27633;DHT22;15046;50.930;13.334;2023-07-08T02:37:01;18.40;61.70
27633;DHT22;15046;50.930;13.334;2023-07-08T02:39:27;18.40;61.80
27633;DHT22;15046;50.930;13.334;2023-07-08T02:41:54;18.30;61.50
27633;DHT22;15046;50.930;13.334;2023-07-08T02:44:20;18.30;61.70
27633;DHT22;15046;50.930;13.334;2023-07-08T02:46:45;18.30;61.70
27633;DHT22;15046;50.930;13.334;2023-07-08T02:49:11;18.30;61.90
27633;DHT22;15046;50.930;13.334;2023-07-08T02:51:37;18.30;62.10
27633;DHT22;15046;50.930;13.334;2023-07-08T02:54:03;18.30;62.00
27633;DHT22;15046;50.930;13.334;2023-07-08T02:56:29;18.30;61.90
27633;DHT22;15046;50.930;13.334;2023-07-08T02:58:56;18.30;61.80
27633;DHT22;15046;50.930;13.334;2023-07-08T03:01:22;18.20;61.60
27633;DHT22;15046;50.930;13.334;2023-07-08T03:03:49;18.20;61.60
27633;DHT22;15046;50.930;13.334;2023-07-08T03:06:15;18.20;61.80
27633;DHT22;15046;50.930;13.334;2023-07-08T03:08:41;18.20;62.00
27633;DHT22;15046;50.930;13.334;2023-07-08T03:11:08;18.20;62.10
27633;DHT22;15046;50.930;13.334;2023-07-08T03:13:34;18.20;62.10
27633;DHT22;15046;50.930;13.334;2023-07-08T03:16:02;18.20;62.30
27633;DHT22;15046;50.930;13.334;2023-07-08T03:18:29;18.20;62.00
27633;DHT22;15046;50.930;13.334;2023-07-08T03:20:56;18.20;61.70
27633;DHT22;15046;50.930;13.334;2023-07-08T03:23:23;18.20;61.50
27633;DHT22;15046;50.930;13.334;2023-07-08T03:25:52;18.20;61.60
27633;DHT22;15046;50.930;13.334;2023-07-08T03:28:18;18.30;61.60
27633;DHT22;15046;50.930;13.334;2023-07-08T03:30:45;18.30;61.60
27633;DHT22;15046;50.930;13.334;2023-07-08T03:33:16;18.30;61.50
27633;DHT22;15046;50.930;13.334;2023-07-08T03:35:41;18.30;61.40
27633;DHT22;15046;50.930;13.334;2023-07-08T03:38:09;18.40;61.30
27633;DHT22;15046;50.930;13.334;2023-07-08T03:40:35;18.30;61.30
27633;DHT22;15046;50.930;13.334;2023-07-08T03:43:01;18.40;61.40
27633;DHT22;15046;50.930;13.334;2023-07-08T03:45:27;18.40;61.30
27633;DHT22;15046;50.930;13.334;2023-07-08T03:47:53;18.40;61.20
27633;DHT22;15046;50.930;13.334;2023-07-08T03:50:24;18.40;61.20
27633;DHT22;15046;50.930;13.334;2023-07-08T03:52:55;18.40;61.60
27633;DHT22;15046;50.930;13.334;2023-07-08T03:55:21;18.50;61.70
27633;DHT22;15046;50.930;13.334;2023-07-08T03:57:47;18.50;61.80
27633;DHT22;15046;50.930;13.334;2023-07-08T04:00:14;18.50;61.80
27633;DHT22;15046;50.930;13.334;2023-07-08T04:02:44;18.50;61.80
27633;DHT22;15046;50.930;13.334;2023-07-08T04:05:18;18.60;61.80
27633;DHT22;15046;50.930;13.334;2023-07-08T04:07:45;18.60;61.90
27633;DHT22;15046;50.930;13.334;2023-07-08T04:10:12;18.70;61.90
27633;DHT22;15046;50.930;13.334;2023-07-08T04:12:38;18.70;61.80
27633;DHT22;15046;50.930;13.334;2023-07-08T04:15:07;18.80;61.80
27633;DHT22;15046;50.930;13.334;2023-07-08T04:17:35;18.80;61.80
27633;DHT22;15046;50.930;13.334;2023-07-08T04:20:02;18.90;61.60
27633;DHT22;15046;50.930;13.334;2023-07-08T04:22:29;18.90;61.30
27633;DHT22;15046;50.930;13.334;2023-07-08T04:24:55;19.00;61.40
27633;DHT22;15046;50.930;13.334;2023-07-08T04:27:21;19.10;61.40
27633;DHT22;15046;50.930;13.334;2023-07-08T04:29:47;19.10;62.10
27633;DHT22;15046;50.930;13.334;2023-07-08T04:32:13;19.30;61.60
27633;DHT22;15046;50.930;13.334;2023-07-08T04:34:39;19.50;61.10
27633;DHT22;15046;50.930;13.334;2023-07-08T04:37:05;19.80;60.90
27633;DHT22;15046;50.930;13.334;2023-07-08T04:39:31;20.00;60.70
27633;DHT22;15046;50.930;13.334;2023-07-08T04:41:57;20.10;60.70
27633;DHT22;15046;50.930;13.334;2023-07-08T04:44:23;20.10;60.80
27633;DHT22;15046;50.930;13.334;2023-07-08T04:46:52;20.00;61.00
27633;DHT22;15046;50.930;13.334;2023-07-08T04:49:19;20.00;61.00
27633;DHT22;15046;50.930;13.334;2023-07-08T04:51:47;19.90;60.80
27633;DHT22;15046;50.930;13.334;2023-07-08T04:54:13;20.00;61.10
27633;DHT22;15046;50.930;13.334;2023-07-08T04:56:45;20.00;61.10
27633;DHT22;15046;50.930;13.334;2023-07-08T04:59:14;20.00;61.20
27633;DHT22;15046;50.930;13.334;2023-07-08T05:01:41;20.00;61.10
27633;DHT22;15046;50.930;13.334;2023-07-08T05:04:09;20.10;61.40
27633;DHT22;15046;50.930;13.334;2023-07-08T05:06:36;20.10;61.40
27633;DHT22;15046;50.930;13.334;2023-07-08T05:09:04;20.20;61.30
27633;DHT22;15046;50.930;13.334;2023-07-08T05:11:30;20.30;61.30
27633;DHT22;15046;50.930;13.334;2023-07-08T05:13:56;20.30;61.20
27633;DHT22;15046;50.930;13.334;2023-07-08T05:16:22;20.40;61.30
27633;DHT22;15046;50.930;13.334;2023-07-08T05:18:48;20.40;61.50
27633;DHT22;15046;50.930;13.334;2023-07-08T05:21:14;20.50;61.50
27633;DHT22;15046;50.930;13.334;2023-07-08T05:23:40;20.50;61.20
27633;DHT22;15046;50.930;13.334;2023-07-08T05:26:07;20.60;61.00
27633;DHT22;15046;50.930;13.334;2023-07-08T05:28:33;20.70;60.90
27633;DHT22;15046;50.930;13.334;2023-07-08T05:30:59;20.80;61.10
27633;DHT22;15046;50.930;13.334;2023-07-08T05:33:27;20.80;60.90
27633;DHT22;15046;50.930;13.334;2023-07-08T05:35:54;20.90;60.60
27633;DHT22;15046;50.930;13.334;2023-07-08T05:38:20;20.90;60.60
27633;DHT22;15046;50.930;13.334;2023-07-08T05:41:04;21.00;60.70
27633;DHT22;15046;50.930;13.334;2023-07-08T05:43:30;21.10;61.00
27633;DHT22;15046;50.930;13.334;2023-07-08T05:46:00;21.20;60.90
27633;DHT22;15046;50.930;13.334;2023-07-08T05:48:26;21.30;60.80
27633;DHT22;15046;50.930;13.334;2023-07-08T05:50:52;21.40;60.50
27633;DHT22;15046;50.930;13.334;2023-07-08T05:53:21;21.50;60.40
27633;DHT22;15046;50.930;13.334;2023-07-08T05:55:48;21.60;60.50
27633;DHT22;15046;50.930;13.334;2023-07-08T05:58:14;21.70;60.60
27633;DHT22;15046;50.930;13.334;2023-07-08T06:00:42;21.80;60.80
27633;DHT22;15046;50.930;13.334;2023-07-08T06:03:09;21.90;60.60
27633;DHT22;15046;50.930;13.334;2023-07-08T06:05:38;21.90;60.20
27633;DHT22;15046;50.930;13.334;2023-07-08T06:08:06;22.00;60.10
27633;DHT22;15046;50.930;13.334;2023-07-08T06:10:33;22.10;60.20
27633;DHT22;15046;50.930;13.334;2023-07-08T06:13:00;22.20;60.40
27633;DHT22;15046;50.930;13.334;2023-07-08T06:15:26;22.30;60.40
27633;DHT22;15046;50.930;13.334;2023-07-08T06:17:52;22.40;60.50
27633;DHT22;15046;50.930;13.334;2023-07-08T06:20:18;22.50;60.70
27633;DHT22;15046;50.930;13.334;2023-07-08T06:22:44;22.50;61.30
27633;DHT22;15046;50.930;13.334;2023-07-08T06:25:10;22.60;60.70
27633;DHT22;15046;50.930;13.334;2023-07-08T06:27:36;22.70;60.60
27633;DHT22;15046;50.930;13.334;2023-07-08T06:30:02;22.80;60.70
27633;DHT22;15046;50.930;13.334;2023-07-08T06:32:28;22.90;60.60
27633;DHT22;15046;50.930;13.334;2023-07-08T06:34:54;23.00;60.10
27633;DHT22;15046;50.930;13.334;2023-07-08T06:37:21;23.10;59.90
27633;DHT22;15046;50.930;13.334;2023-07-08T06:39:47;23.20;60.00
27633;DHT22;15046;50.930;13.334;2023-07-08T06:42:13;23.30;60.50
27633;DHT22;15046;50.930;13.334;2023-07-08T06:44:40;23.30;60.00
27633;DHT22;15046;50.930;13.334;2023-07-08T06:47:09;23.40;60.00
27633;DHT22;15046;50.930;13.334;2023-07-08T06:49:36;23.60;60.00
27633;DHT22;15046;50.930;13.334;2023-07-08T06:52:04;23.70;59.70
27633;DHT22;15046;50.930;13.334;2023-07-08T06:54:29;23.80;59.10
27633;DHT22;15046;50.930;13.334;2023-07-08T06:56:55;24.00;59.00
27633;DHT22;15046;50.930;13.334;2023-07-08T06:59:22;24.10;58.70
27633;DHT22;15046;50.930;13.334;2023-07-08T07:01:48;24.10;58.20
27633;DHT22;15046;50.930;13.334;2023-07-08T07:04:14;24.30;58.30
27633;DHT22;15046;50.930;13.334;2023-07-08T07:06:40;24.40;58.40
27633;DHT22;15046;50.930;13.334;2023-07-08T07:09:06;24.40;58.00
27633;DHT22;15046;50.930;13.334;2023-07-08T07:11:31;24.50;57.90
27633;DHT22;15046;50.930;13.334;2023-07-08T07:13:57;24.50;58.00
27633;DHT22;15046;50.930;13.334;2023-07-08T07:16:24;24.60;57.60
27633;DHT22;15046;50.930;13.334;2023-07-08T07:18:50;24.70;57.30
27633;DHT22;15046;50.930;13.334;2023-07-08T07:21:17;24.80;57.10
27633;DHT22;15046;50.930;13.334;2023-07-08T07:23:43;24.80;57.30
27633;DHT22;15046;50.930;13.334;2023-07-08T07:26:09;24.90;57.30
27633;DHT22;15046;50.930;13.334;2023-07-08T07:28:35;25.00;57.30
27633;DHT22;15046;50.930;13.334;2023-07-08T07:31:04;25.10;57.40
27633;DHT22;15046;50.930;13.334;2023-07-08T07:33:32;25.20;57.90
27633;DHT22;15046;50.930;13.334;2023-07-08T07:35:58;25.30;57.20
27633;DHT22;15046;50.930;13.334;2023-07-08T07:38:24;25.40;56.40
27633;DHT22;15046;50.930;13.334;2023-07-08T07:40:55;25.40;56.30
27633;DHT22;15046;50.930;13.334;2023-07-08T07:43:21;25.50;55.90
27633;DHT22;15046;50.930;13.334;2023-07-08T07:45:52;25.50;55.50
27633;DHT22;15046;50.930;13.334;2023-07-08T07:48:18;25.60;55.60
27633;DHT22;15046;50.930;13.334;2023-07-08T07:50:46;25.60;55.70
27633;DHT22;15046;50.930;13.334;2023-07-08T07:53:12;25.60;55.10
27633;DHT22;15046;50.930;13.334;2023-07-08T07:55:38;25.70;55.00
27633;DHT22;15046;50.930;13.334;2023-07-08T07:58:04;25.80;54.60
27633;DHT22;15046;50.930;13.334;2023-07-08T08:00:30;25.80;54.70
27633;DHT22;15046;50.930;13.334;2023-07-08T08:02:56;26.00;55.30
27633;DHT22;15046;50.930;13.334;2023-07-08T08:05:23;26.10;54.70
27633;DHT22;15046;50.930;13.334;2023-07-08T08:07:48;26.10;53.80
27633;DHT22;15046;50.930;13.334;2023-07-08T08:10:15;26.20;54.10
27633;DHT22;15046;50.930;13.334;2023-07-08T08:12:41;26.40;54.20
27633;DHT22;15046;50.930;13.334;2023-07-08T08:15:07;26.60;53.60
27633;DHT22;15046;50.930;13.334;2023-07-08T08:17:34;26.70;53.30
27633;DHT22;15046;50.930;13.334;2023-07-08T08:20:00;26.80;53.60
27633;DHT22;15046;50.930;13.334;2023-07-08T08:22:27;26.90;53.50
27633;DHT22;15046;50.930;13.334;2023-07-08T08:24:54;26.90;53.70
27633;DHT22;15046;50.930;13.334;2023-07-08T08:27:20;26.90;53.00
27633;DHT22;15046;50.930;13.334;2023-07-08T08:29:46;27.00;52.40
27633;DHT22;15046;50.930;13.334;2023-07-08T08:32:11;27.10;52.10
27633;DHT22;15046;50.930;13.334;2023-07-08T08:34:39;27.20;52.10
27633;DHT22;15046;50.930;13.334;2023-07-08T08:37:05;27.30;51.50
27633;DHT22;15046;50.930;13.334;2023-07-08T08:39:31;27.30;51.20
27633;DHT22;15046;50.930;13.334;2023-07-08T08:41:57;27.30;50.80
27633;DHT22;15046;50.930;13.334;2023-07-08T08:44:32;27.30;50.10
27633;DHT22;15046;50.930;13.334;2023-07-08T08:47:04;27.20;49.10
27633;DHT22;15046;50.930;13.334;2023-07-08T08:49:44;27.30;49.50
27633;DHT22;15046;50.930;13.334;2023-07-08T08:52:14;27.50;48.70
27633;DHT22;15046;50.930;13.334;2023-07-08T08:54:41;27.70;48.60
27633;DHT22;15046;50.930;13.334;2023-07-08T08:57:17;28.00;49.10
27633;DHT22;15046;50.930;13.334;2023-07-08T08:59:54;28.10;49.50
27633;DHT22;15046;50.930;13.334;2023-07-08T09:05:11;28.40;48.60
27633;DHT22;15046;50.930;13.334;2023-07-08T09:08:02;28.40;48.00
27633;DHT22;15046;50.930;13.334;2023-07-08T09:10:44;28.40;47.10
27633;DHT22;15046;50.930;13.334;2023-07-08T09:13:25;28.40;46.70
27633;DHT22;15046;50.930;13.334;2023-07-08T09:21:44;29.40;47.50
27633;DHT22;15046;50.930;13.334;2023-07-08T09:24:41;29.70;46.50
27633;DHT22;15046;50.930;13.334;2023-07-08T09:27:07;30.00;45.90
27633;DHT22;15046;50.930;13.334;2023-07-08T09:29:33;30.20;44.50
27633;DHT22;15046;50.930;13.334;2023-07-08T09:32:22;30.20;43.60
27633;DHT22;15046;50.930;13.334;2023-07-08T09:34:52;30.20;43.20
27633;DHT22;15046;50.930;13.334;2023-07-08T09:37:26;30.20;44.00
27633;DHT22;15046;50.930;13.334;2023-07-08T09:39:56;30.30;43.30
27633;DHT22;15046;50.930;13.334;2023-07-08T09:42:27;30.40;43.80
27633;DHT22;15046;50.930;13.334;2023-07-08T09:44:57;30.40;44.30
27633;DHT22;15046;50.930;13.334;2023-07-08T09:47:27;30.40;44.20
27633;DHT22;15046;50.930;13.334;2023-07-08T09:49:59;30.40;44.30
27633;DHT22;15046;50.930;13.334;2023-07-08T09:52:26;30.40;44.20
27633;DHT22;15046;50.930;13.334;2023-07-08T09:54:52;30.40;44.40
27633;DHT22;15046;50.930;13.334;2023-07-08T09:57:32;30.60;44.30
27633;DHT22;15046;50.930;13.334;2023-07-08T10:00:03;30.70;43.80
27633;DHT22;15046;50.930;13.334;2023-07-08T10:02:40;30.90;43.30
27633;DHT22;15046;50.930;13.334;2023-07-08T10:05:22;31.10;43.20
27633;DHT22;15046;50.930;13.334;2023-07-08T10:07:52;31.40;43.80
27633;DHT22;15046;50.930;13.334;2023-07-08T10:10:26;31.90;42.50
27633;DHT22;15046;50.930;13.334;2023-07-08T10:13:01;32.30;42.70
27633;DHT22;15046;50.930;13.334;2023-07-08T10:15:41;32.90;41.90
27633;DHT22;15046;50.930;13.334;2023-07-08T10:18:14;33.40;41.20
27633;DHT22;15046;50.930;13.334;2023-07-08T10:26:00;34.30;41.20
27633;DHT22;15046;50.930;13.334;2023-07-08T10:36:30;33.50;40.80
27633;DHT22;15046;50.930;13.334;2023-07-08T10:39:37;33.80;40.00
27633;DHT22;15046;50.930;13.334;2023-07-08T10:43:05;33.60;40.20
27633;DHT22;15046;50.930;13.334;2023-07-08T10:45:15;33.90;40.00
27633;DHT22;15046;50.930;13.334;2023-07-08T10:47:51;34.70;40.70
27633;DHT22;15046;50.930;13.334;2023-07-08T10:50:57;35.50;39.00
27633;DHT22;15046;50.930;13.334;2023-07-08T10:53:41;36.60;38.70
27633;DHT22;15046;50.930;13.334;2023-07-08T10:56:20;37.60;38.20
27633;DHT22;15046;50.930;13.334;2023-07-08T10:58:50;38.50;36.80
27633;DHT22;15046;50.930;13.334;2023-07-08T11:06:53;38.90;35.30
27633;DHT22;15046;50.930;13.334;2023-07-08T11:09:26;39.20;35.60
27633;DHT22;15046;50.930;13.334;2023-07-08T11:14:48;40.00;35.20
27633;DHT22;15046;50.930;13.334;2023-07-08T11:18:04;40.60;36.20
27633;DHT22;15046;50.930;13.334;2023-07-08T11:20:59;41.10;35.60
27633;DHT22;15046;50.930;13.334;2023-07-08T11:23:36;41.30;34.60
27633;DHT22;15046;50.930;13.334;2023-07-08T11:26:23;40.30;33.80
27633;DHT22;15046;50.930;13.334;2023-07-08T11:28:53;38.90;35.30
27633;DHT22;15046;50.930;13.334;2023-07-08T11:31:20;38.00;36.30
27633;DHT22;15046;50.930;13.334;2023-07-08T11:33:48;38.70;37.20
27633;DHT22;15046;50.930;13.334;2023-07-08T11:36:14;39.20;37.10
27633;DHT22;15046;50.930;13.334;2023-07-08T11:38:53;38.80;36.10
27633;DHT22;15046;50.930;13.334;2023-07-08T11:41:23;38.90;35.80
27633;DHT22;15046;50.930;13.334;2023-07-08T11:43:53;39.50;36.50
27633;DHT22;15046;50.930;13.334;2023-07-08T11:46:24;39.80;35.00
27633;DHT22;15046;50.930;13.334;2023-07-08T11:48:53;40.20;35.10
27633;DHT22;15046;50.930;13.334;2023-07-08T11:51:28;39.80;35.20
27633;DHT22;15046;50.930;13.334;2023-07-08T11:59:20;40.40;34.90
27633;DHT22;15046;50.930;13.334;2023-07-08T12:07:12;41.70;35.30
27633;DHT22;15046;50.930;13.334;2023-07-08T12:10:03;42.20;34.80
27633;DHT22;15046;50.930;13.334;2023-07-08T12:12:32;42.50;34.30
27633;DHT22;15046;50.930;13.334;2023-07-08T12:15:25;42.60;34.10
27633;DHT22;15046;50.930;13.334;2023-07-08T12:17:56;42.40;33.40
27633;DHT22;15046;50.930;13.334;2023-07-08T12:20:28;41.90;33.60
27633;DHT22;15046;50.930;13.334;2023-07-08T12:22:55;41.50;32.80
27633;DHT22;15046;50.930;13.334;2023-07-08T12:25:24;41.40;32.60
27633;DHT22;15046;50.930;13.334;2023-07-08T12:27:51;41.50;33.90
27633;DHT22;15046;50.930;13.334;2023-07-08T12:30:17;41.80;34.60
27633;DHT22;15046;50.930;13.334;2023-07-08T12:32:44;42.20;32.90
27633;DHT22;15046;50.930;13.334;2023-07-08T12:35:32;42.50;33.00
27633;DHT22;15046;50.930;13.334;2023-07-08T12:38:17;42.60;33.30
27633;DHT22;15046;50.930;13.334;2023-07-08T12:40:44;42.80;34.60
27633;DHT22;15046;50.930;13.334;2023-07-08T12:43:10;43.00;34.20
27633;DHT22;15046;50.930;13.334;2023-07-08T12:45:37;42.90;32.40
27633;DHT22;15046;50.930;13.334;2023-07-08T12:48:03;42.20;33.50
27633;DHT22;15046;50.930;13.334;2023-07-08T12:50:31;42.00;33.00
27633;DHT22;15046;50.930;13.334;2023-07-08T12:52:56;41.30;32.90
27633;DHT22;15046;50.930;13.334;2023-07-08T12:55:23;41.20;34.30
27633;DHT22;15046;50.930;13.334;2023-07-08T12:57:51;41.30;35.50
27633;DHT22;15046;50.930;13.334;2023-07-08T13:00:30;41.20;33.60
27633;DHT22;15046;50.930;13.334;2023-07-08T13:03:12;40.50;33.10
27633;DHT22;15046;50.930;13.334;2023-07-08T13:05:40;40.00;34.40
27633;DHT22;15046;50.930;13.334;2023-07-08T13:08:12;39.60;34.90
27633;DHT22;15046;50.930;13.334;2023-07-08T13:10:38;40.00;36.10
27633;DHT22;15046;50.930;13.334;2023-07-08T13:13:07;40.70;35.00
27633;DHT22;15046;50.930;13.334;2023-07-08T13:15:38;41.10;33.90
27633;DHT22;15046;50.930;13.334;2023-07-08T13:18:13;41.20;33.60
27633;DHT22;15046;50.930;13.334;2023-07-08T13:20:45;41.50;33.60
27633;DHT22;15046;50.930;13.334;2023-07-08T13:23:12;41.70;32.60
27633;DHT22;15046;50.930;13.334;2023-07-08T13:25:38;41.70;32.80
27633;DHT22;15046;50.930;13.334;2023-07-08T13:28:28;42.00;32.50
27633;DHT22;15046;50.930;13.334;2023-07-08T13:30:59;42.20;34.00
27633;DHT22;15046;50.930;13.334;2023-07-08T13:33:31;42.60;33.80
27633;DHT22;15046;50.930;13.334;2023-07-08T13:35:57;42.70;32.00
27633;DHT22;15046;50.930;13.334;2023-07-08T13:38:25;42.60;32.60
27633;DHT22;15046;50.930;13.334;2023-07-08T13:40:55;42.60;33.00
27633;DHT22;15046;50.930;13.334;2023-07-08T13:43:36;42.50;32.70
27633;DHT22;15046;50.930;13.334;2023-07-08T13:46:03;42.40;32.70
27633;DHT22;15046;50.930;13.334;2023-07-08T13:48:37;42.10;31.90
27633;DHT22;15046;50.930;13.334;2023-07-08T13:51:06;41.70;31.60
27633;DHT22;15046;50.930;13.334;2023-07-08T13:56:18;41.30;32.30
27633;DHT22;15046;50.930;13.334;2023-07-08T13:58:51;41.00;32.10
27633;DHT22;15046;50.930;13.334;2023-07-08T14:01:20;41.00;32.00
27633;DHT22;15046;50.930;13.334;2023-07-08T14:03:47;41.20;31.70
27633;DHT22;15046;50.930;13.334;2023-07-08T14:06:18;41.50;31.60
27633;DHT22;15046;50.930;13.334;2023-07-08T14:08:44;41.70;31.40
27633;DHT22;15046;50.930;13.334;2023-07-08T14:11:10;42.00;32.10
27633;DHT22;15046;50.930;13.334;2023-07-08T14:13:36;42.20;31.10
27633;DHT22;15046;50.930;13.334;2023-07-08T14:16:03;42.50;32.20
27633;DHT22;15046;50.930;13.334;2023-07-08T14:18:32;43.00;31.20
27633;DHT22;15046;50.930;13.334;2023-07-08T14:20:58;43.30;30.80
27633;DHT22;15046;50.930;13.334;2023-07-08T14:23:24;43.10;30.30
27633;DHT22;15046;50.930;13.334;2023-07-08T14:25:50;42.80;31.80
27633;DHT22;15046;50.930;13.334;2023-07-08T14:28:16;42.80;31.20
27633;DHT22;15046;50.930;13.334;2023-07-08T14:30:44;42.40;31.60
27633;DHT22;15046;50.930;13.334;2023-07-08T14:33:11;41.90;30.60
27633;DHT22;15046;50.930;13.334;2023-07-08T14:35:39;41.10;30.80
27633;DHT22;15046;50.930;13.334;2023-07-08T14:38:10;40.30;31.80
27633;DHT22;15046;50.930;13.334;2023-07-08T14:40:38;39.80;34.30
27633;DHT22;15046;50.930;13.334;2023-07-08T14:45:40;39.60;34.60
27633;DHT22;15046;50.930;13.334;2023-07-08T14:48:10;39.50;34.40
27633;DHT22;15046;50.930;13.334;2023-07-08T14:50:36;39.40;34.00
27633;DHT22;15046;50.930;13.334;2023-07-08T14:53:02;39.20;34.50
27633;DHT22;15046;50.930;13.334;2023-07-08T14:55:28;38.90;34.70
27633;DHT22;15046;50.930;13.334;2023-07-08T14:57:54;38.60;34.10
27633;DHT22;15046;50.930;13.334;2023-07-08T15:00:23;38.30;34.30
27633;DHT22;15046;50.930;13.334;2023-07-08T15:02:51;38.10;35.30
27633;DHT22;15046;50.930;13.334;2023-07-08T15:05:22;38.10;34.30
27633;DHT22;15046;50.930;13.334;2023-07-08T15:07:50;37.90;34.90
27633;DHT22;15046;50.930;13.334;2023-07-08T15:10:17;37.60;34.30
27633;DHT22;15046;50.930;13.334;2023-07-08T15:12:43;36.90;34.40
27633;DHT22;15046;50.930;13.334;2023-07-08T15:15:27;36.60;35.70
27633;DHT22;15046;50.930;13.334;2023-07-08T15:17:53;36.60;35.60
27633;DHT22;15046;50.930;13.334;2023-07-08T15:20:19;36.90;35.80
27633;DHT22;15046;50.930;13.334;2023-07-08T15:22:47;37.10;37.30
27633;DHT22;15046;50.930;13.334;2023-07-08T15:25:14;37.20;36.20
27633;DHT22;15046;50.930;13.334;2023-07-08T15:27:49;37.20;37.30
27633;DHT22;15046;50.930;13.334;2023-07-08T15:30:17;37.20;36.90
27633;DHT22;15046;50.930;13.334;2023-07-08T15:32:44;37.30;35.70
27633;DHT22;15046;50.930;13.334;2023-07-08T15:35:29;37.60;36.10
27633;DHT22;15046;50.930;13.334;2023-07-08T15:37:58;38.10;35.50
27633;DHT22;15046;50.930;13.334;2023-07-08T15:40:25;38.80;34.50
27633;DHT22;15046;50.930;13.334;2023-07-08T15:42:54;39.50;35.00
27633;DHT22;15046;50.930;13.334;2023-07-08T15:45:25;40.30;35.30
27633;DHT22;15046;50.930;13.334;2023-07-08T15:47:51;41.00;35.80
27633;DHT22;15046;50.930;13.334;2023-07-08T15:50:21;41.50;34.60
27633;DHT22;15046;50.930;13.334;2023-07-08T15:52:47;41.90;35.00
27633;DHT22;15046;50.930;13.334;2023-07-08T15:55:16;42.10;34.80
27633;DHT22;15046;50.930;13.334;2023-07-08T15:57:49;42.10;34.70
27633;DHT22;15046;50.930;13.334;2023-07-08T16:00:29;42.20;34.80
27633;DHT22;15046;50.930;13.334;2023-07-08T16:02:58;42.20;34.40
27633;DHT22;15046;50.930;13.334;2023-07-08T16:05:25;42.20;34.80
27633;DHT22;15046;50.930;13.334;2023-07-08T16:07:52;42.20;35.00
27633;DHT22;15046;50.930;13.334;2023-07-08T16:10:19;42.40;35.50
27633;DHT22;15046;50.930;13.334;2023-07-08T16:12:46;42.60;34.60
27633;DHT22;15046;50.930;13.334;2023-07-08T16:15:17;42.80;34.60